Time;durP1;ratioP1;P1;durP2;ratioP2;P2;SDS_P1;SDS_P2;PMS_P1;PMS_P2;Temp;Humidity;BMP_temperature;BMP_pressure;BME280_temperature;BME280_humidity;BME280_pressure;Samples;Min_cycle;Max_cycle;Signal;HPM_P1;HPM_P2
2023/12/09 00:02:10;;;;;;;55.30;27.30;;;;;;;-3.01;87.15;100939.96;108692;282;38242;-71
2023/12/09 00:04:49;;;;;;;65.70;33.10;;;;;;;-2.95;87.35;100936.20;108526;282;156046;-70
2023/12/09 00:07:25;;;;;;;57.40;29.60;;;;;;;-2.89;87.47;100927.31;108711;282;39264;-68
2023/12/09 00:09:59;;;;;;;56.40;27.50;;;;;;;-2.85;87.24;100927.05;108521;282;176310;-71
2023/12/09 00:12:37;;;;;;;55.00;25.60;;;;;;;-2.83;87.32;100925.73;108583;282;38452;-72
2023/12/09 00:15:12;;;;;;;53.90;26.50;;;;;;;-2.81;87.32;100924.59;108729;282;40038;-70
2023/12/09 00:17:49;;;;;;;46.80;23.50;;;;;;;-2.82;87.28;100917.22;108484;282;156760;-71
2023/12/09 00:20:28;;;;;;;46.50;24.70;;;;;;;-2.83;87.15;100911.41;108731;282;38243;-70
2023/12/09 00:23:04;;;;;;;42.40;21.60;;;;;;;-2.87;86.94;100908.73;108516;282;155146;-71
2023/12/09 00:25:41;;;;;;;42.60;22.50;;;;;;;-2.88;87.01;100908.55;108027;282;924348;-68
2023/12/09 00:28:19;;;;;;;45.50;23.40;;;;;;;-2.85;87.15;100903.32;108449;283;155536;-72
2023/12/09 00:30:57;;;;;;;49.30;23.90;;;;;;;-2.84;87.30;100902.31;108531;282;41370;-72
2023/12/09 00:33:32;;;;;;;45.90;22.50;;;;;;;-2.88;87.35;100897.45;108731;282;38795;-72
2023/12/09 00:36:09;;;;;;;46.90;24.50;;;;;;;-2.89;87.39;100898.29;108577;282;38357;-72
2023/12/09 00:38:44;;;;;;;41.00;22.10;;;;;;;-2.88;87.49;100892.33;108734;282;38601;-70
2023/12/09 00:41:19;;;;;;;40.60;21.60;;;;;;;-2.83;87.60;100892.78;108480;282;155830;-70
2023/12/09 00:43:55;;;;;;;41.40;22.80;;;;;;;-2.81;87.59;100896.60;108741;282;38373;-68
2023/12/09 00:46:32;;;;;;;48.20;24.60;;;;;;;-2.80;87.61;100898.34;108533;282;155138;-69
2023/12/09 00:49:10;;;;;;;47.60;24.20;;;;;;;-2.78;87.61;100898.02;108748;280;38294;-70
2023/12/09 00:51:48;;;;;;;38.40;20.80;;;;;;;-2.75;87.77;100901.02;108619;282;154958;-70
2023/12/09 00:54:26;;;;;;;43.40;20.70;;;;;;;-2.75;87.79;100893.14;108572;282;39919;-71
2023/12/09 00:57:05;;;;;;;42.20;22.60;;;;;;;-2.72;87.73;100886.73;108029;282;921721;-70
2023/12/09 00:59:43;;;;;;;40.50;21.60;;;;;;;-2.71;87.90;100887.98;108431;283;156013;-71
2023/12/09 01:02:20;;;;;;;44.20;22.20;;;;;;;-2.70;87.90;100890.40;108602;282;38454;-70
2023/12/09 01:05:03;;;;;;;47.20;23.10;;;;;;;-2.70;87.98;100887.63;108527;282;154203;-71
2023/12/09 01:07:42;;;;;;;42.90;21.50;;;;;;;-2.73;87.98;100891.52;108694;283;39356;-72
2023/12/09 01:10:19;;;;;;;40.50;19.50;;;;;;;-2.73;87.94;100887.06;108464;283;156370;-68
2023/12/09 01:12:53;;;;;;;43.90;23.50;;;;;;;-2.70;88.15;100883.21;108639;283;38489;-73
2023/12/09 01:15:31;;;;;;;50.70;24.50;;;;;;;-2.68;88.12;100878.98;108625;284;38408;-71
2023/12/09 01:18:07;;;;;;;40.80;19.80;;;;;;;-2.68;88.23;100878.48;108496;282;176201;-68
2023/12/09 01:20:44;;;;;;;44.00;21.10;;;;;;;-2.69;88.28;100871.46;108722;282;38430;-70
2023/12/09 01:23:18;;;;;;;46.30;23.20;;;;;;;-2.72;88.09;100874.13;108527;282;156172;-67
2023/12/09 01:25:58;;;;;;;49.30;25.00;;;;;;;-2.71;88.30;100877.20;108594;284;39533;-68
2023/12/09 01:28:36;;;;;;;49.10;24.00;;;;;;;-2.69;88.28;100878.27;108493;284;155175;-70
2023/12/09 01:31:12;;;;;;;53.30;26.00;;;;;;;-2.70;88.43;100874.86;108572;284;38319;-71
2023/12/09 01:33:50;;;;;;;58.90;28.10;;;;;;;-2.69;88.41;100873.16;108489;284;154515;-70
2023/12/09 01:36:27;;;;;;;57.10;25.00;;;;;;;-2.69;88.41;100870.61;108606;284;38352;-70
2023/12/09 01:39:02;;;;;;;53.70;26.00;;;;;;;-2.72;88.33;100871.72;108609;284;39796;-73
2023/12/09 01:41:39;;;;;;;57.40;29.30;;;;;;;-2.71;88.48;100871.57;108571;283;156001;-71
2023/12/09 01:44:13;;;;;;;56.10;26.50;;;;;;;-2.66;88.60;100870.33;108773;282;38172;-69
2023/12/09 01:46:55;;;;;;;54.80;27.00;;;;;;;-2.68;88.34;100871.80;108532;282;154276;-70
2023/12/09 01:49:31;;;;;;;59.90;29.80;;;;;;;-2.65;88.44;100874.95;108615;284;39894;-73
2023/12/09 01:52:10;;;;;;;63.90;29.60;;;;;;;-2.64;88.54;100875.84;108455;284;155651;-73
2023/12/09 01:54:44;;;;;;;57.10;26.80;;;;;;;-2.64;88.45;100874.81;108629;284;38428;-71
2023/12/09 01:57:20;;;;;;;61.90;27.80;;;;;;;-2.63;88.58;100871.08;108593;282;38536;-71
2023/12/09 01:59:54;;;;;;;67.10;30.40;;;;;;;-2.61;88.57;100873.17;108536;282;155426;-70
2023/12/09 02:02:32;;;;;;;65.10;30.20;;;;;;;-2.57;88.66;100874.44;108726;282;38744;-68
2023/12/09 02:05:08;;;;;;;63.50;28.70;;;;;;;-2.57;88.62;100873.27;108584;282;155396;-71
2023/12/09 02:07:44;;;;;;;65.40;29.30;;;;;;;-2.61;88.60;100871.98;108738;282;38615;-70
2023/12/09 02:10:21;;;;;;;65.50;29.70;;;;;;;-2.66;88.57;100862.80;108653;282;156298;-69
2023/12/09 02:13:02;;;;;;;61.30;29.40;;;;;;;-2.69;88.63;100861.88;108657;282;38491;-71
2023/12/09 02:15:40;;;;;;;61.50;28.70;;;;;;;-2.70;88.64;100860.51;108720;282;38292;-68
2023/12/09 02:18:13;;;;;;;;;;;;;;;-2.65;88.91;100855.33;108609;282;38497;-73
2023/12/09 02:20:47;;;;;;;72.00;32.20;;;;;;;-2.69;88.98;100849.42;108699;282;39517;-72
2023/12/09 02:23:25;;;;;;;66.60;32.20;;;;;;;-2.71;89.00;100845.80;108498;282;154164;-72
2023/12/09 02:26:05;;;;;;;74.40;31.10;;;;;;;-2.72;89.16;100840.47;108662;282;39030;-73
2023/12/09 02:28:45;;;;;;;67.20;29.90;;;;;;;-2.77;89.22;100842.39;108599;282;156077;-67
2023/12/09 02:31:22;;;;;;;68.50;31.30;;;;;;;-2.76;89.23;100848.74;108703;282;38301;-70
2023/12/09 02:33:58;;;;;;;67.30;31.00;;;;;;;-2.74;89.36;100851.52;108638;282;155623;-68
2023/12/09 02:36:39;;;;;;;68.80;30.90;;;;;;;-2.75;89.33;100851.00;108666;282;38597;-68
2023/12/09 02:39:14;;;;;;;71.40;31.70;;;;;;;-2.73;89.36;100847.10;108802;282;38163;-73
2023/12/09 02:41:52;;;;;;;74.30;32.80;;;;;;;-2.71;89.43;100841.52;108460;282;155919;-70
2023/12/09 02:44:26;;;;;;;69.50;29.70;;;;;;;-2.70;89.46;100842.92;108808;282;40030;-69
2023/12/09 02:47:01;;;;;;;65.40;28.10;;;;;;;-2.71;89.47;100849.73;108587;282;155933;-69
2023/12/09 02:49:36;;;;;;;65.50;28.70;;;;;;;-2.74;89.32;100849.45;108725;282;38692;-71
2023/12/09 02:52:12;;;;;;;69.00;29.90;;;;;;;-2.75;89.36;100841.42;108455;283;154530;-71
2023/12/09 02:54:48;;;;;;;70.30;32.50;;;;;;;-2.74;89.51;100837.19;108689;282;38303;-70
2023/12/09 02:57:22;;;;;;;73.40;31.50;;;;;;;-2.71;89.59;100844.76;108768;282;39395;-72
2023/12/09 02:59:56;;;;;;;68.70;30.00;;;;;;;-2.71;89.57;100850.91;108550;282;155409;-70
2023/12/09 03:02:31;;;;;;;73.70;30.30;;;;;;;-2.69;89.59;100851.98;108744;282;38576;-71
2023/12/09 03:05:13;;;;;;;66.50;30.00;;;;;;;-2.68;89.62;100857.14;108515;282;155860;-68
2023/12/09 03:07:47;;;;;;;71.30;30.60;;;;;;;-2.66;89.61;100852.56;108763;282;40066;-70
2023/12/09 03:10:24;;;;;;;74.00;31.30;;;;;;;-2.62;89.67;100849.92;108613;282;155291;-68
2023/12/09 03:12:59;;;;;;;73.50;31.40;;;;;;;-2.58;89.72;100854.95;108699;282;39923;-70
2023/12/09 03:15:33;;;;;;;72.30;29.90;;;;;;;-2.58;89.65;100851.05;108734;282;38238;-72
2023/12/09 03:18:12;;;;;;;68.50;30.50;;;;;;;-2.58;89.52;100851.55;108477;282;154604;-71
2023/12/09 03:20:47;;;;;;;76.30;30.50;;;;;;;-2.57;89.40;100852.42;108680;282;38238;-71
2023/12/09 03:23:20;;;;;;;63.10;29.80;;;;;;;-2.55;89.50;100847.85;108490;283;154840;-70
2023/12/09 03:25:55;;;;;;;69.70;31.30;;;;;;;-2.54;89.44;100845.15;108738;282;38182;-70
2023/12/09 03:28:30;;;;;;;76.10;33.10;;;;;;;-2.54;89.33;100850.27;108631;282;154745;-70
2023/12/09 03:31:06;;;;;;;74.60;30.20;;;;;;;-2.55;89.29;100849.05;108699;282;38179;-69
2023/12/09 03:33:42;;;;;;;79.90;33.20;;;;;;;-2.56;89.36;100845.44;108776;282;40042;-68
2023/12/09 03:36:16;;;;;;;75.40;30.20;;;;;;;-2.54;89.41;100844.13;108571;282;38917;-70
2023/12/09 03:38:51;;;;;;;69.20;29.80;;;;;;;-2.55;89.23;100837.77;108737;282;38759;-70
2023/12/09 03:41:25;;;;;;;77.30;31.80;;;;;;;-2.58;89.31;100838.74;108474;282;154101;-72
2023/12/09 03:43:59;;;;;;;79.70;32.60;;;;;;;-2.55;89.56;100841.04;108698;282;38156;-71
2023/12/09 03:46:33;;;;;;;74.10;29.60;;;;;;;-2.54;89.58;100841.23;108557;282;154458;-70
2023/12/09 03:49:10;;;;;;;73.50;30.70;;;;;;;-2.51;89.63;100841.80;108718;282;38197;-71
2023/12/09 03:51:46;;;;;;;71.80;32.10;;;;;;;-2.53;89.43;100840.39;108736;282;38335;-73
2023/12/09 03:54:24;;;;;;;74.70;31.10;;;;;;;-2.52;89.48;100841.42;108620;282;38192;-72
2023/12/09 03:57:01;;;;;;;74.00;30.80;;;;;;;-2.49;89.58;100840.98;108736;282;39629;-72
2023/12/09 03:59:41;;;;;;;80.00;33.60;;;;;;;-2.49;89.34;100845.77;108506;282;155365;-70
2023/12/09 04:02:15;;;;;;;78.90;30.10;;;;;;;-2.51;89.47;100843.34;108668;282;39189;-71
2023/12/09 04:04:50;;;;;;;74.50;31.50;;;;;;;-2.48;89.70;100845.95;108462;282;176237;-72
2023/12/09 04:07:27;;;;;;;69.00;29.00;;;;;;;-2.47;89.60;100844.12;108693;282;39540;-70
2023/12/09 04:10:03;;;;;;;71.40;30.80;;;;;;;-2.45;89.50;100844.16;108605;282;155345;-70
2023/12/09 04:12:40;;;;;;;81.10;31.40;;;;;;;-2.42;89.69;100844.23;108619;282;38916;-72
2023/12/09 04:15:20;;;;;;;79.50;32.60;;;;;;;-2.47;89.40;100845.66;108704;282;38197;-70
2023/12/09 04:17:54;;;;;;;79.80;32.10;;;;;;;-2.50;89.36;100839.27;108559;282;154330;-71
2023/12/09 04:20:28;;;;;;;73.90;30.30;;;;;;;-2.50;89.51;100838.92;108722;282;38202;-71
2023/12/09 04:23:04;;;;;;;70.00;28.50;;;;;;;-2.48;89.52;100840.33;108593;282;154855;-70
2023/12/09 04:25:49;;;;;;;71.60;30.50;;;;;;;-2.43;89.82;100842.48;108667;282;38512;-70
2023/12/09 04:28:25;;;;;;;78.20;31.80;;;;;;;-2.42;89.83;100837.57;108631;282;154273;-71
2023/12/09 04:31:00;;;;;;;72.50;29.60;;;;;;;-2.42;89.78;100834.31;108720;282;38349;-72
2023/12/09 04:33:34;;;;;;;76.10;31.60;;;;;;;-2.46;89.74;100827.91;108743;282;38287;-71
2023/12/09 04:36:10;;;;;;;78.70;31.20;;;;;;;-2.48;89.87;100823.77;108634;282;154955;-71
2023/12/09 04:38:44;;;;;;;70.30;30.00;;;;;;;-2.46;89.91;100819.39;108802;281;38277;-70
2023/12/09 04:41:19;;;;;;;72.10;31.90;;;;;;;-2.46;89.79;100817.83;108598;281;154911;-69
2023/12/09 04:43:53;;;;;;;84.10;31.70;;;;;;;-2.45;90.06;100812.73;108727;282;39110;-68
2023/12/09 04:46:29;;;;;;;78.60;30.40;;;;;;;-2.45;89.99;100809.83;108616;282;154533;-70
2023/12/09 04:49:12;;;;;;;79.40;29.30;;;;;;;-2.43;90.09;100807.64;108734;282;38792;-73
2023/12/09 04:51:51;;;;;;;71.50;30.10;;;;;;;-2.41;90.03;100806.32;108741;282;38197;-72
2023/12/09 04:54:26;;;;;;;76.60;30.50;;;;;;;-2.43;89.70;100805.94;108595;282;39410;-73
2023/12/09 04:57:06;;;;;;;71.60;31.20;;;;;;;-2.42;89.83;100804.59;108715;280;38280;-73
2023/12/09 04:59:42;;;;;;;76.30;31.10;;;;;;;-2.38;89.94;100805.35;108506;283;154481;-70
2023/12/09 05:02:18;;;;;;;78.60;31.00;;;;;;;-2.37;89.96;100802.14;108760;282;38808;-70
2023/12/09 05:04:57;;;;;;;67.80;29.50;;;;;;;-2.35;90.00;100795.69;108457;282;175875;-68
2023/12/09 05:07:35;;;;;;;74.30;29.40;;;;;;;-2.40;89.77;100788.40;108658;282;38745;-70
2023/12/09 05:10:14;;;;;;;68.20;29.60;;;;;;;-2.41;89.80;100781.04;108595;282;155283;-71
2023/12/09 05:12:48;;;;;;;;;;;;;;;-2.44;89.79;100783.20;108118;282;627481;-69
2023/12/09 05:15:23;;;;;;;63.70;25.40;;;;;;;-2.49;89.90;100787.87;108783;282;38784;-69
2023/12/09 05:17:59;;;;;;;67.20;28.80;;;;;;;-2.51;89.88;100778.75;108468;282;154283;-71
2023/12/09 05:20:33;;;;;;;64.90;29.50;;;;;;;-2.49;90.14;100779.66;108697;282;38703;-73
2023/12/09 05:23:07;;;;;;;66.60;28.80;;;;;;;-2.49;90.05;100778.47;108543;282;154067;-73
2023/12/09 05:25:42;;;;;;;66.80;28.90;;;;;;;-2.53;89.95;100778.39;108645;282;38350;-73
2023/12/09 05:28:17;;;;;;;66.90;28.80;;;;;;;-2.55;90.12;100782.27;108586;282;155137;-71
2023/12/09 05:30:51;;;;;;;60.40;27.30;;;;;;;-2.57;89.98;100784.79;108590;282;38190;-72
2023/12/09 05:33:29;;;;;;;59.70;27.30;;;;;;;-2.57;90.07;100788.71;108752;282;38335;-71
2023/12/09 05:36:02;;;;;;;67.60;29.20;;;;;;;-2.56;90.20;100787.70;108475;282;155083;-69
2023/12/09 05:38:39;;;;;;;67.10;28.00;;;;;;;-2.58;90.15;100787.48;108765;282;38251;-69
2023/12/09 05:41:17;;;;;;;66.50;27.60;;;;;;;-2.60;90.23;100785.23;108535;282;156210;-71
2023/12/09 05:44:02;;;;;;;66.60;27.40;;;;;;;-2.62;90.24;100787.94;108715;282;38692;-71
2023/12/09 05:46:40;;;;;;;58.70;26.90;;;;;;;-2.63;90.30;100782.61;108533;282;156548;-70
2023/12/09 05:49:17;;;;;;;63.70;28.80;;;;;;;-2.62;90.47;100778.19;108669;282;39094;-71
2023/12/09 05:51:52;;;;;;;67.00;30.40;;;;;;;-2.63;90.39;100773.39;108712;282;38253;-71
2023/12/09 05:54:31;;;;;;;72.70;30.70;;;;;;;-2.61;90.55;100779.27;108634;282;38171;-73
2023/12/09 05:57:10;;;;;;;65.30;28.60;;;;;;;-2.59;90.70;100778.44;108608;282;176246;-72
2023/12/09 05:59:45;;;;;;;64.90;26.80;;;;;;;-2.57;90.71;100776.42;108531;282;156254;-68
2023/12/09 06:02:32;;;;;;;59.60;25.30;;;;;;;-2.56;90.48;100770.64;108723;282;39410;-70
2023/12/09 06:05:09;;;;;;;57.40;25.70;;;;;;;-2.56;90.56;100767.40;108532;282;154148;-71
2023/12/09 06:07:43;;;;;;;63.40;27.20;;;;;;;-2.60;90.59;100769.88;108718;282;39848;-72
2023/12/09 06:10:19;;;;;;;60.40;27.30;;;;;;;-2.62;90.69;100764.02;108559;282;155515;-72
2023/12/09 06:12:53;;;;;;;57.80;25.70;;;;;;;-2.64;90.72;100757.66;108619;282;38527;-70
2023/12/09 06:15:29;;;;;;;63.70;27.60;;;;;;;-2.66;90.79;100760.52;108725;282;38195;-71
2023/12/09 06:18:03;;;;;;;59.40;27.00;;;;;;;-2.65;90.88;100753.55;108452;282;156027;-70
2023/12/09 06:20:41;;;;;;;64.40;27.30;;;;;;;-2.65;90.99;100754.55;108713;282;38295;-69
2023/12/09 06:23:16;;;;;;;65.10;30.40;;;;;;;-2.70;91.25;100759.92;108480;282;153940;-69
2023/12/09 06:25:53;;;;;;;69.90;29.30;;;;;;;-2.75;91.48;100757.05;108655;282;38822;-69
2023/12/09 06:28:32;;;;;;;108.90;44.00;;;;;;;-2.77;91.38;100756.34;108585;282;157304;-72
2023/12/09 06:31:07;;;;;;;68.40;30.50;;;;;;;-2.72;91.47;100755.42;108637;282;38624;-71
2023/12/09 06:33:43;;;;;;;80.30;34.40;;;;;;;-2.67;91.56;100755.19;108700;282;38224;-68
2023/12/09 06:36:17;;;;;;;64.60;29.70;;;;;;;-2.64;91.60;100751.48;108498;281;155728;-68
2023/12/09 06:38:57;;;;;;;63.50;26.90;;;;;;;-2.67;91.58;100746.68;108729;282;39387;-70
2023/12/09 06:41:31;;;;;;;62.00;24.90;;;;;;;-2.67;91.64;100753.31;108462;282;154756;-70
2023/12/09 06:44:05;;;;;;;58.90;28.20;;;;;;;-2.69;91.47;100751.40;108694;282;38577;-70
2023/12/09 06:46:42;;;;;;;53.50;26.10;;;;;;;-2.62;91.70;100744.70;108545;282;154717;-71
2023/12/09 06:49:19;;;;;;;60.70;28.70;;;;;;;-2.55;91.85;100746.57;108526;282;176250;-71
2023/12/09 06:51:53;;;;;;;;;;;;;;;-2.55;91.80;100749.33;108741;282;38907;-69
2023/12/09 06:54:28;;;;;;;65.40;27.40;;;;;;;-2.61;91.72;100748.66;108656;282;38305;-71
2023/12/09 06:57:05;;;;;;;64.00;26.50;;;;;;;-2.62;91.60;100742.51;108693;282;38866;-71
2023/12/09 06:59:43;;;;;;;58.30;26.40;;;;;;;-2.58;91.69;100739.34;108569;282;155417;-68
2023/12/09 07:02:17;;;;;;;60.20;27.60;;;;;;;-2.55;91.66;100741.80;108714;282;37911;-68
2023/12/09 07:04:58;;;;;;;57.50;25.60;;;;;;;-2.53;91.78;100745.77;108520;282;154329;-69
2023/12/09 07:07:36;;;;;;;63.50;28.80;;;;;;;-2.56;91.62;100743.81;108630;282;38171;-70
2023/12/09 07:10:14;;;;;;;68.90;28.40;;;;;;;-2.56;91.64;100743.82;108436;282;154842;-72
2023/12/09 07:12:48;;;;;;;64.60;29.00;;;;;;;-2.53;91.78;100738.92;108646;282;38358;-72
2023/12/09 07:15:24;;;;;;;58.60;26.80;;;;;;;-2.50;91.84;100743.11;108672;282;38157;-73
2023/12/09 07:17:58;;;;;;;58.20;26.30;;;;;;;-2.47;91.70;100740.77;108526;282;156719;-70
2023/12/09 07:20:33;;;;;;;64.70;28.70;;;;;;;-2.43;91.78;100741.52;108741;282;38289;-70
2023/12/09 07:23:09;;;;;;;71.70;31.90;;;;;;;-2.41;91.71;100745.17;108542;282;155541;-69
2023/12/09 07:25:44;;;;;;;72.40;29.30;;;;;;;-2.38;91.79;100747.10;108655;282;39360;-69
2023/12/09 07:28:18;;;;;;;67.70;29.70;;;;;;;-2.39;91.65;100749.64;108613;282;155993;-69
2023/12/09 07:30:54;;;;;;;68.50;27.70;;;;;;;-2.37;91.66;100751.39;108594;282;39636;-69
2023/12/09 07:33:28;;;;;;;67.40;29.10;;;;;;;-2.34;91.66;100752.83;108756;282;39958;-71
2023/12/09 07:36:02;;;;;;;58.40;26.00;;;;;;;-2.30;91.72;100756.64;108461;282;155071;-70
2023/12/09 07:38:36;;;;;;;65.80;29.70;;;;;;;-2.32;91.51;100757.82;108722;282;38308;-73
2023/12/09 07:41:10;;;;;;;65.70;29.90;;;;;;;-2.34;91.34;100752.14;108493;282;154063;-71
2023/12/09 07:43:49;;;;;;;70.40;29.20;;;;;;;-2.34;91.52;100749.91;108670;282;38314;-72
2023/12/09 07:46:23;;;;;;;64.00;28.60;;;;;;;-2.34;91.55;100751.12;108405;283;155197;-72
2023/12/09 07:48:58;;;;;;;65.00;27.60;;;;;;;-2.30;91.53;100746.07;108674;282;38491;-72
2023/12/09 07:51:34;;;;;;;66.00;28.20;;;;;;;-2.26;91.61;100738.79;108730;282;39471;-71
2023/12/09 07:54:10;;;;;;;60.90;27.60;;;;;;;-2.23;91.62;100742.77;108464;282;154208;-69
2023/12/09 07:56:46;;;;;;;68.00;29.30;;;;;;;-2.21;91.52;100747.28;108703;282;38604;-67
2023/12/09 07:59:21;;;;;;;67.60;29.30;;;;;;;-2.19;91.50;100744.91;108482;282;155284;-71
2023/12/09 08:01:58;;;;;;;67.50;28.40;;;;;;;-2.20;91.47;100744.23;108689;282;39354;-72
2023/12/09 08:04:34;;;;;;;65.60;29.00;;;;;;;-2.19;91.46;100746.46;108586;282;156197;-68
2023/12/09 08:07:09;;;;;;;63.60;27.30;;;;;;;-2.14;91.58;100744.16;108648;282;38518;-70
2023/12/09 08:09:43;;;;;;;69.60;29.60;;;;;;;-2.10;91.46;100742.70;108743;282;38762;-73
2023/12/09 08:12:18;;;;;;;67.60;28.00;;;;;;;-2.07;91.53;100744.63;108431;282;153930;-71
2023/12/09 08:14:52;;;;;;;70.80;29.00;;;;;;;-2.04;91.41;100741.79;108731;282;38363;-71
2023/12/09 08:17:29;;;;;;;77.90;30.90;;;;;;;-2.05;91.35;100739.36;108550;282;154743;-71
2023/12/09 08:20:11;;;;;;;72.70;31.00;;;;;;;-2.09;91.10;100738.10;108745;282;38276;-69
2023/12/09 08:22:49;;;;;;;68.30;29.00;;;;;;;-2.10;91.26;100734.34;108571;282;155230;-70
2023/12/09 08:25:24;;;;;;;67.50;28.90;;;;;;;-2.12;91.21;100727.27;108669;282;38349;-70
2023/12/09 08:27:59;;;;;;;77.00;32.20;;;;;;;-2.13;91.34;100727.44;108715;282;38403;-70
2023/12/09 08:30:34;;;;;;;74.10;32.00;;;;;;;-2.14;91.27;100726.73;108586;282;38142;-72
2023/12/09 08:33:12;;;;;;;82.40;34.00;;;;;;;-2.12;91.45;100726.59;108765;282;38337;-71
2023/12/09 08:35:47;;;;;;;77.00;32.00;;;;;;;-2.12;91.45;100727.78;108518;282;154533;-70
2023/12/09 08:38:22;;;;;;;78.80;32.10;;;;;;;-2.14;91.55;100725.70;108770;282;39683;-71
2023/12/09 08:41:00;;;;;;;74.60;31.70;;;;;;;-2.16;91.55;100726.52;108532;282;154796;-72
2023/12/09 08:43:39;;;;;;;76.60;31.40;;;;;;;-2.13;91.62;100723.65;108661;282;38333;-69
2023/12/09 08:46:14;;;;;;;80.90;32.40;;;;;;;-2.08;91.77;100722.38;108587;282;154656;-69
2023/12/09 08:48:50;;;;;;;81.50;34.40;;;;;;;-2.03;91.89;100723.16;108614;282;38702;-73
2023/12/09 08:51:26;;;;;;;86.20;36.00;;;;;;;-2.03;91.79;100725.23;108772;282;38181;-73
2023/12/09 08:54:00;;;;;;;78.30;32.20;;;;;;;-2.04;91.64;100722.98;108495;282;155036;-72
2023/12/09 08:56:35;;;;;;;80.50;34.30;;;;;;;-2.00;91.77;100724.95;108721;282;38172;-70
2023/12/09 08:59:11;;;;;;;82.70;34.70;;;;;;;-1.99;91.69;100714.70;108474;283;155268;-71
2023/12/09 09:01:47;;;;;;;84.50;34.40;;;;;;;-1.96;91.80;100706.03;108691;282;39036;-71
2023/12/09 09:04:23;;;;;;;77.40;33.20;;;;;;;-1.91;91.86;100699.98;108448;282;155435;-71
2023/12/09 09:06:57;;;;;;;89.50;36.00;;;;;;;-1.88;91.88;100693.70;108551;282;173470;-71
2023/12/09 09:09:36;;;;;;;85.10;35.00;;;;;;;-1.86;91.78;100689.63;108745;282;39171;-72
2023/12/09 09:12:11;;;;;;;82.70;34.30;;;;;;;-1.85;91.75;100687.08;108434;282;156544;-70
2023/12/09 09:15:00;;;;;;;81.80;34.60;;;;;;;-1.82;91.86;100679.80;108734;282;37862;-72
2023/12/09 09:17:49;;;;;;;83.70;37.50;;;;;;;-1.77;91.79;100679.18;108575;282;154741;-71
2023/12/09 09:20:30;;;;;;;94.90;40.40;;;;;;;-1.74;91.73;100670.51;108836;281;38171;-69
2023/12/09 09:23:05;;;;;;;90.60;37.50;;;;;;;-1.70;91.75;100661.52;108667;281;155593;-71
2023/12/09 09:25:41;;;;;;;101.40;38.80;;;;;;;-1.69;91.71;100662.37;108694;282;38511;-70
2023/12/09 09:28:18;;;;;;;92.90;38.40;;;;;;;-1.66;91.70;100660.05;108671;282;155176;-69
2023/12/09 09:30:52;;;;;;;90.60;39.20;;;;;;;-1.64;91.53;100655.63;108625;282;38318;-68
2023/12/09 09:33:28;;;;;;;81.00;36.90;;;;;;;-1.60;91.59;100652.77;108588;282;39705;-72
2023/12/09 09:39:47;;;;;;;81.80;36.50;;;;;;;-1.45;91.83;100650.11;108864;280;38190;-73
2023/12/09 09:42:35;;;;;;;81.10;34.50;;;;;;;-1.42;91.67;100649.13;108576;282;154663;-71
2023/12/09 09:45:22;;;;;;;85.90;34.50;;;;;;;-1.39;91.60;100639.92;108714;282;38197;-69
2023/12/09 09:47:58;;;;;;;84.50;35.30;;;;;;;-1.36;91.39;100630.73;108468;282;154873;-70
2023/12/09 09:50:34;;;;;;;86.60;35.70;;;;;;;-1.31;91.35;100630.80;108724;282;38312;-72
2023/12/09 09:53:13;;;;;;;87.30;36.60;;;;;;;-1.28;91.21;100630.34;108526;282;155252;-73
2023/12/09 09:55:47;;;;;;;91.20;39.60;;;;;;;-1.26;91.13;100633.44;108591;282;38325;-71
2023/12/09 09:58:21;;;;;;;87.70;38.10;;;;;;;-1.25;90.99;100631.05;108571;282;154886;-68
2023/12/09 10:00:57;;;;;;;79.40;33.50;;;;;;;-1.25;90.96;100628.65;108614;282;38186;-69
2023/12/09 10:03:31;;;;;;;75.20;33.30;;;;;;;-1.24;90.93;100621.64;108693;282;38643;-73
2023/12/09 10:06:06;;;;;;;76.20;32.70;;;;;;;-1.21;91.03;100620.84;108472;284;154347;-70
2023/12/09 10:08:49;;;;;;;87.10;37.50;;;;;;;-1.13;91.19;100615.30;108737;283;39386;-68
2023/12/09 10:11:27;;;;;;;82.00;36.70;;;;;;;-1.09;91.11;100612.61;108401;283;154065;-69
2023/12/09 10:14:06;;;;;;;80.80;33.90;;;;;;;-1.05;91.06;100608.90;108530;283;39429;-71
2023/12/09 10:16:41;;;;;;;76.30;33.30;;;;;;;-1.01;90.96;100604.49;108439;282;155966;-68
2023/12/09 10:19:20;;;;;;;74.20;32.40;;;;;;;-0.96;91.05;100601.65;108529;284;38463;-70
2023/12/09 10:21:55;;;;;;;79.70;35.30;;;;;;;-0.89;90.86;100600.70;108545;284;39406;-69
2023/12/09 10:24:34;;;;;;;77.20;33.20;;;;;;;-0.87;90.65;100601.42;107708;284;917869;-71
2023/12/09 10:27:09;;;;;;;86.60;38.10;;;;;;;-0.84;90.78;100600.61;108631;284;38206;-70
2023/12/09 10:29:45;;;;;;;78.40;32.40;;;;;;;-0.80;90.78;100597.05;108419;283;154194;-70
2023/12/09 10:32:22;;;;;;;78.90;33.60;;;;;;;-0.78;90.48;100589.89;108684;282;38858;-73
2023/12/09 10:34:57;;;;;;;77.10;31.70;;;;;;;-0.75;90.49;100588.70;108572;282;155775;-68
2023/12/09 10:37:36;;;;;;;72.80;33.50;;;;;;;-0.72;90.30;100590.64;108647;282;38246;-69
2023/12/09 10:40:13;;;;;;;79.60;33.90;;;;;;;-0.70;90.08;100593.40;108550;282;154893;-68
2023/12/09 10:42:53;;;;;;;76.80;34.30;;;;;;;-0.70;90.04;100586.73;108548;282;38625;-70
2023/12/09 10:45:32;;;;;;;81.20;34.20;;;;;;;-0.67;90.24;100579.04;108743;282;39178;-70
2023/12/09 10:48:12;;;;;;;76.10;33.20;;;;;;;-0.64;90.17;100579.42;108426;283;155879;-69
2023/12/09 10:50:46;;;;;;;70.40;32.70;;;;;;;-0.62;89.96;100576.36;108751;282;38189;-72
2023/12/09 10:53:24;;;;;;;79.90;33.50;;;;;;;-0.60;90.09;100574.99;108414;284;154366;-73
2023/12/09 10:55:59;;;;;;;77.40;36.50;;;;;;;-0.59;89.67;100573.13;108597;283;38168;-69
2023/12/09 10:58:34;;;;;;;82.60;36.80;;;;;;;-0.61;89.79;100566.42;108446;283;154248;-72
2023/12/09 11:01:15;;;;;;;78.60;33.20;;;;;;;-0.61;89.85;100566.94;108594;283;38157;-69
2023/12/09 11:03:50;;;;;;;73.10;32.70;;;;;;;-0.60;89.99;100563.17;108591;284;38683;-70
2023/12/09 11:06:28;;;;;;;76.50;34.50;;;;;;;-0.55;89.94;100554.14;108467;283;156277;-69
2023/12/09 11:09:03;;;;;;;75.60;35.30;;;;;;;-0.52;89.79;100551.28;108629;284;38827;-72
2023/12/09 11:11:39;;;;;;;78.00;35.60;;;;;;;-0.50;89.91;100552.31;108430;284;154118;-73
2023/12/09 11:14:18;;;;;;;78.20;34.40;;;;;;;-0.48;89.75;100550.98;108565;284;39555;-71
2023/12/09 11:16:53;;;;;;;80.80;34.30;;;;;;;-0.47;89.76;100550.29;108494;283;154838;-73
2023/12/09 11:19:27;;;;;;;73.80;31.20;;;;;;;-0.45;89.72;100554.59;108661;282;38752;-73
2023/12/09 11:22:03;;;;;;;77.30;34.50;;;;;;;-0.44;89.69;100549.63;108545;282;38459;-71
2023/12/09 11:24:38;;;;;;;77.30;34.50;;;;;;;-0.40;89.82;100544.35;108539;283;38704;-71
2023/12/09 11:27:15;;;;;;;78.40;34.10;;;;;;;-0.37;89.81;100542.84;108612;283;38456;-71
2023/12/09 11:29:50;;;;;;;79.50;33.80;;;;;;;-0.36;89.49;100542.00;108487;283;155420;-72
2023/12/09 11:32:29;;;;;;;80.20;35.90;;;;;;;-0.38;89.60;100536.15;108615;283;39417;-70
2023/12/09 11:35:04;;;;;;;85.40;38.40;;;;;;;-0.35;89.66;100535.30;108458;283;155679;-71
2023/12/09 11:37:42;;;;;;;92.30;45.00;;;;;;;-0.35;89.59;100534.98;108673;282;38205;-72
2023/12/09 11:40:19;;;;;;;74.70;37.90;;;;;;;-0.30;89.88;100538.64;108455;282;155502;-70
2023/12/09 11:42:55;;;;;;;79.50;36.80;;;;;;;-0.26;89.78;100536.77;108598;284;39531;-71
2023/12/09 11:45:35;;;;;;;77.90;35.80;;;;;;;-0.24;89.81;100537.47;108555;284;38315;-69
2023/12/09 11:48:13;;;;;;;80.80;34.60;;;;;;;-0.21;89.85;100538.00;108517;283;154211;-71
2023/12/09 11:50:50;;;;;;;72.40;34.00;;;;;;;-0.18;89.66;100536.33;108606;281;38818;-72
2023/12/09 11:53:30;;;;;;;70.70;33.10;;;;;;;-0.16;89.64;100537.88;108448;283;154309;-72